createdAt,value
2019-03-17T00:00:32.700Z,11.00
2019-03-17T00:03:02.531Z,10.90
2019-03-17T00:05:31.086Z,10.90
2019-03-17T00:07:59.594Z,10.80
2019-03-17T00:10:28.033Z,10.80
2019-03-17T00:12:56.598Z,10.70
2019-03-17T00:15:25.405Z,10.70
2019-03-17T00:17:54.160Z,10.60
2019-03-17T00:20:22.903Z,10.60
2019-03-17T00:22:51.641Z,10.60
2019-03-17T00:25:20.084Z,10.60
2019-03-17T00:27:48.646Z,10.60
2019-03-17T00:30:18.099Z,10.70
2019-03-17T00:32:46.899Z,10.70
2019-03-17T00:35:16.522Z,10.60
2019-03-17T00:37:44.969Z,10.70
2019-03-17T00:40:13.805Z,10.60
2019-03-17T00:42:42.325Z,10.70
2019-03-17T00:45:12.263Z,10.60
2019-03-17T00:47:41.144Z,10.60
2019-03-17T00:50:10.941Z,10.60
2019-03-17T00:52:39.380Z,10.60
2019-03-17T00:55:08.350Z,10.60
2019-03-17T00:57:39.243Z,10.60
2019-03-17T01:00:15.349Z,10.60
2019-03-17T01:02:43.879Z,10.50
2019-03-17T01:05:12.320Z,10.50
2019-03-17T01:07:40.821Z,10.50
2019-03-17T01:10:09.843Z,10.50
2019-03-17T01:12:38.668Z,10.50
2019-03-17T01:15:08.360Z,10.50
2019-03-17T01:17:36.805Z,10.50
2019-03-17T01:20:07.881Z,10.40
2019-03-17T01:22:38.678Z,10.50
2019-03-17T01:25:08.962Z,10.50
2019-03-17T01:27:37.408Z,10.50
2019-03-17T01:30:10.792Z,10.50
2019-03-17T01:32:39.236Z,10.40
2019-03-17T01:35:10.795Z,10.40
2019-03-17T01:37:39.328Z,10.40
2019-03-17T01:40:10.090Z,10.30
2019-03-17T01:42:38.536Z,10.30
2019-03-17T01:45:09.788Z,10.30
2019-03-17T01:47:38.672Z,10.30
2019-03-17T01:50:09.230Z,10.30
2019-03-17T01:52:39.430Z,10.30
2019-03-17T01:55:08.748Z,10.30
2019-03-17T01:57:37.721Z,10.30
2019-03-17T02:00:12.349Z,10.30
2019-03-17T02:02:40.965Z,10.20
2019-03-17T02:05:21.537Z,10.20
2019-03-17T02:07:39.773Z,10.10
2019-03-17T02:10:08.290Z,10.10
2019-03-17T02:12:36.748Z,10.10
2019-03-17T02:15:07.638Z,10.10
2019-03-17T02:17:36.190Z,10.10
2019-03-17T02:20:07.298Z,10.10
2019-03-17T02:22:35.842Z,10.10
2019-03-17T02:25:05.547Z,10.00
2019-03-17T02:27:34.006Z,10.10
2019-03-17T02:30:02.586Z,10.00
2019-03-17T02:32:31.396Z,10.00
2019-03-17T02:35:02.259Z,10.00
2019-03-17T02:37:30.778Z,10.00
2019-03-17T02:39:59.296Z,10.00
2019-03-17T02:42:27.811Z,10.00
2019-03-17T02:44:58.182Z,10.00
2019-03-17T02:47:27.773Z,9.90
2019-03-17T02:49:56.530Z,9.90
2019-03-17T02:52:25.242Z,9.90
2019-03-17T02:54:54.029Z,9.90
2019-03-17T02:57:22.739Z,9.80
2019-03-17T02:59:51.481Z,9.80
2019-03-17T03:02:20.248Z,9.80
2019-03-17T03:04:48.779Z,9.80
2019-03-17T03:07:17.508Z,9.80
2019-03-17T03:09:46.005Z,9.80
2019-03-17T03:12:14.780Z,9.70
2019-03-17T03:14:44.766Z,9.70
2019-03-17T03:17:13.202Z,9.60
2019-03-17T03:19:41.680Z,9.50
2019-03-17T03:22:10.471Z,9.30
2019-03-17T03:24:39.152Z,9.10
2019-03-17T03:27:07.853Z,9.10
2019-03-17T03:29:36.314Z,9.00
2019-03-17T03:32:05.142Z,8.90
2019-03-17T03:34:33.936Z,8.90
2019-03-17T03:37:02.517Z,8.80
2019-03-17T03:39:32.593Z,8.80
2019-03-17T03:42:03.519Z,8.70
2019-03-17T03:44:32.274Z,8.70
2019-03-17T03:47:01.158Z,8.60
2019-03-17T03:49:30.052Z,8.60
2019-03-17T03:51:58.864Z,8.60
2019-03-17T03:54:27.710Z,8.50
2019-03-17T03:56:56.596Z,8.50
2019-03-17T03:59:25.464Z,8.50
2019-03-17T04:01:54.175Z,8.50
2019-03-17T04:04:22.693Z,8.50
2019-03-17T04:06:51.451Z,8.40
2019-03-17T04:09:20.174Z,8.40
2019-03-17T04:11:49.008Z,8.40
2019-03-17T04:14:17.564Z,8.40
2019-03-17T04:16:46.014Z,8.40
2019-03-17T04:19:15.788Z,8.40
2019-03-17T04:21:44.312Z,8.40
2019-03-17T04:24:13.054Z,8.30
2019-03-17T04:26:41.688Z,8.40
2019-03-17T04:29:12.479Z,8.30
2019-03-17T04:31:42.240Z,8.30
2019-03-17T04:34:12.683Z,8.30
2019-03-17T04:36:42.734Z,8.40
2019-03-17T04:39:11.730Z,8.30
2019-03-17T04:41:40.305Z,8.30
2019-03-17T04:44:20.071Z,8.30
2019-03-17T04:46:39.247Z,8.30
2019-03-17T04:49:09.293Z,8.30
2019-03-17T04:51:38.085Z,8.30
2019-03-17T04:54:06.897Z,8.30
2019-03-17T04:56:35.668Z,8.30
2019-03-17T04:59:04.230Z,8.30
2019-03-17T05:01:32.671Z,8.30
2019-03-17T05:04:01.410Z,8.30
2019-03-17T05:06:29.878Z,8.30
2019-03-17T05:09:00.259Z,8.30
2019-03-17T05:11:28.760Z,8.30
2019-03-17T05:13:57.592Z,8.20
2019-03-17T05:16:26.384Z,8.20
2019-03-17T05:18:54.835Z,8.20
2019-03-17T05:21:24.869Z,8.10
2019-03-17T05:23:53.592Z,8.10
2019-03-17T05:26:22.142Z,8.00
2019-03-17T05:28:50.673Z,8.00
2019-03-17T05:31:20.277Z,8.00
2019-03-17T05:33:49.163Z,8.00
2019-03-17T05:36:17.796Z,8.00
2019-03-17T05:38:46.594Z,7.90
2019-03-17T05:41:15.314Z,8.00
2019-03-17T05:43:45.298Z,8.00
2019-03-17T05:46:15.565Z,8.00
2019-03-17T05:48:44.022Z,7.90
2019-03-17T05:51:12.518Z,7.90
2019-03-17T05:53:41.096Z,7.80
2019-03-17T05:56:09.957Z,7.80
2019-03-17T05:58:38.423Z,7.70
2019-03-17T06:01:06.872Z,7.60
2019-03-17T06:03:36.724Z,7.50
2019-03-17T06:06:05.610Z,7.50
2019-03-17T06:08:34.410Z,7.50
2019-03-17T06:11:03.159Z,7.40
2019-03-17T06:13:31.710Z,7.40
2019-03-17T06:16:01.174Z,7.40
2019-03-17T06:18:29.973Z,7.40
2019-03-17T06:20:58.845Z,7.30
2019-03-17T06:23:30.505Z,7.30
2019-03-17T06:25:59.014Z,7.30
2019-03-17T06:28:27.796Z,7.30
2019-03-17T06:30:56.681Z,7.20
2019-03-17T06:33:25.441Z,7.20
2019-03-17T06:35:54.754Z,7.20
2019-03-17T06:38:23.615Z,7.20
2019-03-17T06:40:52.328Z,7.20
2019-03-17T06:43:21.613Z,7.30
2019-03-17T06:45:50.611Z,7.30
2019-03-17T06:48:20.602Z,7.20
2019-03-17T06:50:49.160Z,7.20
2019-03-17T06:53:17.892Z,7.20
2019-03-17T06:55:46.665Z,7.20
2019-03-17T06:58:15.161Z,7.20
2019-03-17T07:00:43.605Z,7.20
2019-03-17T07:03:13.400Z,7.20
2019-03-17T07:05:42.156Z,7.20
2019-03-17T07:08:10.999Z,7.20
2019-03-17T07:10:39.430Z,7.20
2019-03-17T07:13:08.194Z,7.30
2019-03-17T07:15:36.638Z,7.30
2019-03-17T07:18:05.452Z,7.30
2019-03-17T07:20:34.224Z,7.30
2019-03-17T07:23:03.044Z,7.30
2019-03-17T07:25:31.560Z,7.30
2019-03-17T07:28:01.936Z,7.30
2019-03-17T07:30:31.985Z,7.40
2019-03-17T07:33:00.702Z,7.40
2019-03-17T07:35:29.617Z,7.40
2019-03-17T07:37:58.418Z,7.50
2019-03-17T07:40:26.863Z,7.60
2019-03-17T07:42:55.597Z,7.60
2019-03-17T07:45:24.179Z,7.60
2019-03-17T07:47:52.694Z,7.60
2019-03-17T07:50:22.037Z,7.60
2019-03-17T07:52:50.822Z,7.70
2019-03-17T07:55:19.336Z,7.70
2019-03-17T07:57:48.074Z,7.80
2019-03-17T08:00:30.959Z,7.90
2019-03-17T08:02:49.484Z,8.10
2019-03-17T08:05:18.537Z,8.40
2019-03-17T08:07:47.226Z,8.80
2019-03-17T08:10:17.351Z,8.90
2019-03-17T08:12:46.251Z,8.90
2019-03-17T08:15:16.998Z,8.80
2019-03-17T08:17:45.454Z,8.60
2019-03-17T08:20:14.656Z,8.40
2019-03-17T08:22:43.480Z,8.30
2019-03-17T08:25:12.542Z,8.20
2019-03-17T08:27:41.412Z,8.20
2019-03-17T08:30:12.305Z,8.10
2019-03-17T08:32:41.538Z,8.00
2019-03-17T08:35:11.135Z,8.00
2019-03-17T08:37:40.081Z,8.30
2019-03-17T08:40:15.662Z,8.80
2019-03-17T08:42:44.583Z,9.20
2019-03-17T08:45:14.086Z,9.30
2019-03-17T08:47:42.529Z,9.20
2019-03-17T08:50:13.133Z,8.90
2019-03-17T08:52:41.893Z,8.70
2019-03-17T08:55:11.382Z,8.80
2019-03-17T08:57:39.921Z,9.20
2019-03-17T09:00:18.989Z,9.90
2019-03-17T09:02:47.785Z,10.50
2019-03-17T09:05:17.449Z,10.80
2019-03-17T09:07:46.178Z,11.10
2019-03-17T09:10:16.055Z,11.30
2019-03-17T09:12:44.801Z,11.20
2019-03-17T09:15:13.946Z,11.20
2019-03-17T09:17:42.474Z,11.00
2019-03-17T09:20:15.447Z,10.40
2019-03-17T09:22:44.041Z,9.90
2019-03-17T09:25:15.317Z,9.60
2019-03-17T09:27:45.315Z,9.30
2019-03-17T09:30:16.656Z,9.10
2019-03-17T09:32:45.531Z,9.30
2019-03-17T09:35:14.053Z,9.70
2019-03-17T09:37:42.589Z,10.30
2019-03-17T09:40:13.171Z,10.50
2019-03-17T09:42:41.984Z,10.40
2019-03-17T09:45:14.725Z,10.60
2019-03-17T09:47:43.245Z,10.50
2019-03-17T09:50:16.143Z,10.10
2019-03-17T09:52:45.218Z,9.80
2019-03-17T09:55:13.849Z,9.60
2019-03-17T09:57:42.721Z,9.30
2019-03-17T10:00:14.007Z,9.10
2019-03-17T10:02:42.938Z,8.80
2019-03-17T10:05:11.852Z,8.60
2019-03-17T10:07:40.312Z,8.90
2019-03-17T10:10:11.560Z,9.50
2019-03-17T10:12:40.350Z,10.00
2019-03-17T10:15:11.668Z,10.10
2019-03-17T10:17:41.655Z,9.90
2019-03-17T10:20:13.226Z,9.80
2019-03-17T10:22:41.973Z,10.10
2019-03-17T10:25:11.570Z,10.40
2019-03-17T10:27:40.145Z,10.40
2019-03-17T10:30:13.606Z,10.00
2019-03-17T10:32:42.044Z,9.70
2019-03-17T10:35:10.494Z,9.50
2019-03-17T10:37:39.049Z,9.40
2019-03-17T10:40:19.037Z,9.70
2019-03-17T10:42:47.593Z,10.10
2019-03-17T10:45:16.416Z,9.90
2019-03-17T10:47:45.296Z,10.00
2019-03-17T10:50:21.686Z,10.50
2019-03-17T10:52:50.524Z,10.60
2019-03-17T10:55:19.399Z,10.40
2019-03-17T10:57:48.221Z,10.10
2019-03-17T11:00:22.116Z,9.70
2019-03-17T11:02:50.994Z,9.50
2019-03-17T11:05:19.576Z,9.30
2019-03-17T11:07:48.084Z,9.30
2019-03-17T11:10:16.766Z,9.80
2019-03-17T11:12:47.753Z,10.70
2019-03-17T11:15:17.437Z,11.30
2019-03-17T11:17:46.220Z,11.40
2019-03-17T11:20:15.229Z,11.20
2019-03-17T11:22:43.970Z,10.80
2019-03-17T11:25:14.259Z,10.60
2019-03-17T11:27:43.221Z,10.70
2019-03-17T11:30:16.960Z,11.00
2019-03-17T11:32:45.932Z,11.40
2019-03-17T11:35:14.772Z,11.60
2019-03-17T11:37:43.490Z,11.60
2019-03-17T11:40:21.864Z,11.70
2019-03-17T11:42:50.755Z,12.00
2019-03-17T11:45:19.289Z,12.20
2019-03-17T11:47:51.393Z,12.10
2019-03-17T11:50:24.939Z,11.60
2019-03-17T11:52:53.477Z,11.30
2019-03-17T11:55:21.946Z,10.80
2019-03-17T11:57:50.896Z,10.60
2019-03-17T12:00:23.644Z,10.90
2019-03-17T12:02:56.234Z,11.70
2019-03-17T12:05:29.651Z,12.40
2019-03-17T12:07:58.132Z,13.00
2019-03-17T12:10:27.503Z,13.50
2019-03-17T12:12:57.309Z,14.20
2019-03-17T12:15:31.171Z,14.60
2019-03-17T12:18:01.476Z,13.90
2019-03-17T12:20:29.916Z,13.70
2019-03-17T12:22:58.808Z,13.90
2019-03-17T12:25:28.388Z,14.50
2019-03-17T12:27:58.536Z,15.10
2019-03-17T12:30:27.954Z,14.90
2019-03-17T12:32:56.897Z,14.20
2019-03-17T12:35:25.414Z,13.60
2019-03-17T12:37:54.388Z,13.10
2019-03-17T12:40:22.920Z,13.40
2019-03-17T12:42:51.440Z,13.90
2019-03-17T12:45:19.999Z,14.10
2019-03-17T12:47:50.681Z,14.30
2019-03-17T12:50:23.700Z,14.50
2019-03-17T12:52:52.434Z,14.80
2019-03-17T12:55:21.748Z,15.20
2019-03-17T12:57:51.237Z,15.60
2019-03-17T13:00:21.746Z,16.10
2019-03-17T13:02:50.543Z,16.00
2019-03-17T13:05:19.055Z,15.20
2019-03-17T13:07:49.723Z,14.30
2019-03-17T13:10:22.471Z,13.50
2019-03-17T13:12:51.235Z,13.00
2019-03-17T13:15:22.473Z,12.70
2019-03-17T13:17:50.989Z,12.60
2019-03-17T13:20:20.587Z,13.10
2019-03-17T13:22:50.663Z,13.50
2019-03-17T13:25:21.595Z,13.70
2019-03-17T13:27:50.396Z,13.50
2019-03-17T13:30:19.235Z,13.60
2019-03-17T13:32:47.804Z,14.00
2019-03-17T13:35:16.609Z,14.10
2019-03-17T13:37:45.536Z,14.20
2019-03-17T13:40:28.421Z,14.30
2019-03-17T13:42:49.312Z,14.10
2019-03-17T13:45:18.862Z,14.20
2019-03-17T13:47:47.326Z,14.20
2019-03-17T13:50:18.014Z,14.00
2019-03-17T13:52:48.589Z,13.90
2019-03-17T13:55:19.327Z,13.50
2019-03-17T13:57:57.255Z,13.40
2019-03-17T14:00:25.701Z,13.10
2019-03-17T14:02:54.413Z,12.90
2019-03-17T14:05:23.013Z,12.60
2019-03-17T14:07:54.686Z,12.40
2019-03-17T14:10:40.350Z,12.10
2019-03-17T14:12:59.803Z,12.00
2019-03-17T14:15:28.517Z,11.80
2019-03-17T14:17:57.061Z,11.60
2019-03-17T14:20:25.807Z,11.40
2019-03-17T14:22:57.085Z,11.30
2019-03-17T14:25:32.469Z,11.10
2019-03-17T14:28:01.340Z,11.00
2019-03-17T14:30:30.117Z,10.90
2019-03-17T14:32:59.135Z,10.90
2019-03-17T14:35:30.400Z,11.10
2019-03-17T14:38:02.870Z,11.20
2019-03-17T14:40:31.710Z,11.30
2019-03-17T14:43:00.991Z,11.30
2019-03-17T14:45:32.328Z,11.10
2019-03-17T14:48:00.832Z,11.00
2019-03-17T14:50:29.336Z,10.80
2019-03-17T14:53:00.806Z,10.70
2019-03-17T14:55:29.634Z,10.60
2019-03-17T14:57:58.087Z,10.50
2019-03-17T15:00:26.705Z,10.50
2019-03-17T15:02:55.612Z,10.50
2019-03-17T15:05:25.427Z,10.50
2019-03-17T15:07:54.575Z,10.50
2019-03-17T15:10:29.608Z,10.40
2019-03-17T15:13:00.177Z,10.40
2019-03-17T15:15:29.576Z,10.50
2019-03-17T15:17:58.467Z,10.50
2019-03-17T15:20:30.115Z,10.50
2019-03-17T15:22:58.584Z,10.60
2019-03-17T15:25:27.041Z,10.80
2019-03-17T15:27:57.427Z,10.90
2019-03-17T15:30:28.437Z,11.00
2019-03-17T15:33:00.152Z,10.90
2019-03-17T15:35:31.358Z,10.80
2019-03-17T15:37:59.904Z,10.70
2019-03-17T15:40:28.730Z,10.50
2019-03-17T15:42:59.129Z,10.30
2019-03-17T15:45:27.921Z,10.10
2019-03-17T15:48:04.168Z,9.90
2019-03-17T15:50:46.296Z,9.70
2019-03-17T15:53:16.692Z,9.60
2019-03-17T15:55:45.205Z,9.50
2019-03-17T15:58:14.602Z,9.50
2019-03-17T16:00:43.592Z,9.50
2019-03-17T16:03:12.168Z,9.60
2019-03-17T16:05:40.612Z,9.50
2019-03-17T16:08:09.462Z,9.40
2019-03-17T16:10:38.022Z,9.30
2019-03-17T16:13:06.611Z,9.30
2019-03-17T16:15:36.216Z,9.30
2019-03-17T16:18:05.188Z,9.30
2019-03-17T16:20:33.715Z,9.20
2019-03-17T16:23:02.553Z,9.20
2019-03-17T16:25:47.170Z,9.20
2019-03-17T16:28:16.030Z,9.10
2019-03-17T16:30:44.589Z,9.10
2019-03-17T16:33:13.893Z,9.10
2019-03-17T16:35:42.675Z,9.10
2019-03-17T16:38:14.705Z,9.10
2019-03-17T16:40:47.431Z,9.00
2019-03-17T16:43:17.541Z,9.00
2019-03-17T16:45:48.910Z,9.00
2019-03-17T16:48:17.478Z,9.00
2019-03-17T16:50:46.255Z,9.00
2019-03-17T16:53:14.713Z,8.90
2019-03-17T16:55:43.171Z,9.00
2019-03-17T16:58:11.628Z,8.90
2019-03-17T17:00:40.135Z,8.80
2019-03-17T17:03:08.605Z,8.80
2019-03-17T17:05:37.085Z,8.70
2019-03-17T17:08:05.542Z,8.70
2019-03-17T17:10:34.308Z,8.60
2019-03-17T17:13:03.208Z,8.50
2019-03-17T17:15:33.084Z,8.50
2019-03-17T17:18:01.619Z,8.40
2019-03-17T17:20:34.216Z,8.40
2019-03-17T17:23:02.975Z,8.30
2019-03-17T17:25:37.258Z,8.20
2019-03-17T17:28:06.369Z,8.10
2019-03-17T17:30:34.929Z,7.90
2019-03-17T17:33:03.543Z,7.80
2019-03-17T17:35:32.326Z,7.70
2019-03-17T17:38:02.597Z,7.60
2019-03-17T17:40:31.521Z,7.50
2019-03-17T17:42:59.968Z,7.40
2019-03-17T17:45:30.569Z,7.30
2019-03-17T17:48:00.072Z,7.10
2019-03-17T17:50:35.813Z,7.10
2019-03-17T17:53:05.337Z,7.00
2019-03-17T17:55:34.470Z,6.90
2019-03-17T17:58:03.265Z,6.90
2019-03-17T18:00:42.446Z,6.90
2019-03-17T18:03:10.897Z,6.80
2019-03-17T18:05:40.125Z,6.70
2019-03-17T18:08:09.184Z,6.70
2019-03-17T18:10:39.477Z,6.70
2019-03-17T18:13:07.918Z,6.70
2019-03-17T18:15:36.367Z,6.70
2019-03-17T18:18:04.920Z,6.60
2019-03-17T18:20:33.366Z,6.60
2019-03-17T18:23:02.139Z,6.50
2019-03-17T18:25:30.938Z,6.40
2019-03-17T18:27:59.400Z,6.30
2019-03-17T18:30:28.388Z,6.20
2019-03-17T18:32:57.161Z,6.10
2019-03-17T18:35:25.977Z,6.00
2019-03-17T18:37:54.849Z,5.90
2019-03-17T18:40:23.966Z,5.80
2019-03-17T18:42:55.603Z,5.80
2019-03-17T18:45:29.328Z,5.70
2019-03-17T18:48:00.753Z,5.60
2019-03-17T18:50:29.571Z,5.60
2019-03-17T18:52:58.731Z,5.50
2019-03-17T18:55:27.223Z,5.50
2019-03-17T18:57:55.980Z,5.40
2019-03-17T19:00:25.980Z,5.40
2019-03-17T19:02:57.403Z,5.40
2019-03-17T19:05:27.442Z,5.30
2019-03-17T19:07:55.914Z,5.20
2019-03-17T19:10:24.559Z,5.20
2019-03-17T19:12:53.111Z,5.10
2019-03-17T19:15:29.421Z,5.10
2019-03-17T19:18:05.726Z,5.00
2019-03-17T19:20:38.666Z,5.00
2019-03-17T19:23:08.660Z,5.00
2019-03-17T19:25:41.738Z,4.90
2019-03-17T19:28:10.268Z,4.90
2019-03-17T19:30:47.816Z,4.90
2019-03-17T19:33:16.686Z,4.80
2019-03-17T19:35:46.682Z,4.90
2019-03-17T19:38:15.285Z,4.90
2019-03-17T19:40:44.430Z,4.90
2019-03-17T19:43:13.182Z,4.90
2019-03-17T19:45:41.787Z,4.90
2019-03-17T19:48:10.980Z,4.90
2019-03-17T19:50:39.560Z,4.90
2019-03-17T19:53:08.212Z,4.90
2019-03-17T19:55:37.801Z,4.90
2019-03-17T19:58:07.292Z,4.90
2019-03-17T20:00:35.871Z,4.90
2019-03-17T20:03:04.532Z,4.90
2019-03-17T20:05:34.600Z,4.90
2019-03-17T20:08:03.073Z,5.00
2019-03-17T20:10:36.625Z,5.00
2019-03-17T20:13:11.331Z,5.00
2019-03-17T20:15:35.920Z,5.00
2019-03-17T20:18:04.503Z,5.00
2019-03-17T20:20:33.007Z,5.00
2019-03-17T20:23:05.038Z,5.00
2019-03-17T20:25:33.908Z,5.00
2019-03-17T20:28:02.381Z,5.00
2019-03-17T20:30:31.190Z,5.00
2019-03-17T20:32:59.791Z,5.10
2019-03-17T20:35:33.926Z,5.10
2019-03-17T20:38:02.797Z,5.10
2019-03-17T20:40:31.644Z,5.20
2019-03-17T20:43:02.266Z,5.20
2019-03-17T20:45:30.846Z,5.30
2019-03-17T20:47:59.672Z,5.30
2019-03-17T20:50:29.568Z,5.20
2019-03-17T20:53:01.018Z,5.20
2019-03-17T20:55:29.933Z,5.20
2019-03-17T20:58:00.319Z,5.10
2019-03-17T21:00:28.853Z,5.10
2019-03-17T21:03:08.521Z,5.10
2019-03-17T21:05:37.117Z,5.10
2019-03-17T21:08:06.029Z,5.00
2019-03-17T21:10:34.520Z,5.00
2019-03-17T21:13:03.077Z,4.90
2019-03-17T21:15:31.984Z,4.90
2019-03-17T21:18:01.904Z,4.90
2019-03-17T21:20:30.819Z,4.90
2019-03-17T21:22:59.666Z,4.80
2019-03-17T21:25:28.122Z,4.80
2019-03-17T21:27:57.427Z,4.80
2019-03-17T21:30:28.271Z,4.70
2019-03-17T21:32:57.709Z,4.70
2019-03-17T21:35:29.071Z,4.70
2019-03-17T21:37:58.191Z,4.60
2019-03-17T21:40:27.645Z,4.60
2019-03-17T21:42:56.181Z,4.60
2019-03-17T21:45:27.330Z,4.60
2019-03-17T21:47:56.694Z,4.50
2019-03-17T21:50:25.441Z,4.50
2019-03-17T21:52:54.211Z,4.50
2019-03-17T21:55:24.280Z,4.50
2019-03-17T21:57:52.803Z,4.40
2019-03-17T22:00:21.813Z,4.40
2019-03-17T22:02:54.622Z,4.40
2019-03-17T22:05:20.911Z,4.40
2019-03-17T22:07:51.082Z,4.30
2019-03-17T22:10:20.582Z,4.30
2019-03-17T22:12:49.101Z,4.30
2019-03-17T22:15:18.221Z,4.20
2019-03-17T22:17:47.119Z,4.20
2019-03-17T22:20:16.111Z,4.20
2019-03-17T22:22:45.008Z,4.10
2019-03-17T22:25:15.362Z,4.10
2019-03-17T22:27:43.952Z,4.10
2019-03-17T22:30:15.438Z,4.10
2019-03-17T22:32:45.112Z,4.00
2019-03-17T22:35:13.645Z,4.00
2019-03-17T22:37:42.444Z,4.00
2019-03-17T22:40:13.179Z,3.90
2019-03-17T22:42:41.708Z,3.90
2019-03-17T22:45:12.675Z,3.90
2019-03-17T22:47:41.489Z,3.90
2019-03-17T22:50:12.231Z,3.80
2019-03-17T22:52:41.166Z,3.80
2019-03-17T22:55:10.511Z,3.80
2019-03-17T22:57:38.962Z,3.80
2019-03-17T23:00:12.413Z,3.80
2019-03-17T23:02:45.073Z,3.80
2019-03-17T23:05:15.161Z,3.80
2019-03-17T23:07:43.967Z,3.70
2019-03-17T23:10:12.998Z,3.70
2019-03-17T23:12:41.840Z,3.70
2019-03-17T23:15:12.155Z,3.70
2019-03-17T23:17:40.870Z,3.70
2019-03-17T23:20:14.185Z,3.70
2019-03-17T23:22:43.015Z,3.70
2019-03-17T23:25:12.421Z,3.70
2019-03-17T23:27:41.240Z,3.70
2019-03-17T23:30:18.967Z,3.60
2019-03-17T23:32:49.124Z,3.60
2019-03-17T23:35:18.172Z,3.60
2019-03-17T23:37:46.761Z,3.60
2019-03-17T23:40:16.347Z,3.60
2019-03-17T23:42:45.104Z,3.60
2019-03-17T23:45:13.820Z,3.60
2019-03-17T23:47:42.568Z,3.60
2019-03-17T23:50:17.097Z,3.60
2019-03-17T23:52:46.801Z,3.60
2019-03-17T23:55:15.672Z,3.60
2019-03-17T23:57:44.491Z,3.60
